sensor_id;sensor_type;location;lat;lon;timestamp;pressure;altitude;pressure_sealevel;temperature;humidity
72124;BME280;63818;37.134;-8.548;2024-03-17T00:03:59;101824.3;;;17.7;84.9
72124;BME280;63818;37.134;-8.548;2024-03-17T00:08:47;101813.6;;;17.6;84.8
72124;BME280;63818;37.134;-8.548;2024-03-17T00:13:35;101815.5;;;17.6;85.1
72124;BME280;63818;37.134;-8.548;2024-03-17T00:18:23;101805.1;;;17.6;85.6
72124;BME280;63818;37.134;-8.548;2024-03-17T00:23:19;101800.3;;;17.5;85.5
72124;BME280;63818;37.134;-8.548;2024-03-17T00:28:09;101791.7;;;17.5;85.7
72124;BME280;63818;37.134;-8.548;2024-03-17T00:32:58;101793.6;;;17.6;86.1
72124;BME280;63818;37.134;-8.548;2024-03-17T00:38:25;101788.0;;;17.6;85.5
72124;BME280;63818;37.134;-8.548;2024-03-17T00:43:13;101780.5;;;17.6;85.2
72124;BME280;63818;37.134;-8.548;2024-03-17T00:48:04;101790.7;;;17.6;85.3
72124;BME280;63818;37.134;-8.548;2024-03-17T00:52:52;101785.0;;;17.7;85.2
72124;BME280;63818;37.134;-8.548;2024-03-17T00:57:40;101779.0;;;17.6;84.8
72124;BME280;63818;37.134;-8.548;2024-03-17T01:02:28;101778.6;;;17.5;85.3
72124;BME280;63818;37.134;-8.548;2024-03-17T01:07:16;101772.8;;;17.4;85.5
72124;BME280;63818;37.134;-8.548;2024-03-17T01:12:05;101770.7;;;17.4;85.8
72124;BME280;63818;37.134;-8.548;2024-03-17T01:16:56;101776.9;;;17.4;85.7
72124;BME280;63818;37.134;-8.548;2024-03-17T01:21:56;101769.6;;;17.3;85.9
72124;BME280;63818;37.134;-8.548;2024-03-17T01:26:44;101764.4;;;17.3;85.6
72124;BME280;63818;37.134;-8.548;2024-03-17T01:31:32;101766.1;;;17.2;85.8
72124;BME280;63818;37.134;-8.548;2024-03-17T01:36:25;101764.1;;;17.2;86.2
72124;BME280;63818;37.134;-8.548;2024-03-17T01:41:13;101753.4;;;17.1;86.0
72124;BME280;63818;37.134;-8.548;2024-03-17T01:50:56;101739.5;;;17.2;85.3
72124;BME280;63818;37.134;-8.548;2024-03-17T01:55:47;101728.0;;;17.2;85.5
72124;BME280;63818;37.134;-8.548;2024-03-17T02:00:36;101734.2;;;17.2;85.5
72124;BME280;63818;37.134;-8.548;2024-03-17T02:05:31;101732.5;;;17.2;85.5
72124;BME280;63818;37.134;-8.548;2024-03-17T02:10:19;101730.8;;;17.0;85.9
72124;BME280;63818;37.134;-8.548;2024-03-17T02:15:12;101725.8;;;17.0;86.1
72124;BME280;63818;37.134;-8.548;2024-03-17T02:20:00;101713.2;;;16.9;86.7
72124;BME280;63818;37.134;-8.548;2024-03-17T02:24:48;101698.9;;;16.8;86.9
72124;BME280;63818;37.134;-8.548;2024-03-17T02:29:39;101708.3;;;16.9;86.9
72124;BME280;63818;37.134;-8.548;2024-03-17T02:34:29;101698.7;;;17.0;86.2
72124;BME280;63818;37.134;-8.548;2024-03-17T02:39:17;101687.8;;;17.0;86.3
72124;BME280;63818;37.134;-8.548;2024-03-17T02:44:10;101679.3;;;17.1;85.4
72124;BME280;63818;37.134;-8.548;2024-03-17T02:48:58;101673.1;;;17.0;85.5
72124;BME280;63818;37.134;-8.548;2024-03-17T02:53:48;101669.9;;;17.0;85.3
72124;BME280;63818;37.134;-8.548;2024-03-17T02:58:38;101663.7;;;17.0;85.6
72124;BME280;63818;37.134;-8.548;2024-03-17T03:08:25;101661.8;;;17.0;84.7
72124;BME280;63818;37.134;-8.548;2024-03-17T03:13:13;101649.4;;;17.1;84.0
72124;BME280;63818;37.134;-8.548;2024-03-17T03:18:01;101647.7;;;16.9;83.2
72124;BME280;63818;37.134;-8.548;2024-03-17T03:22:49;101642.2;;;17.0;83.4
72124;BME280;63818;37.134;-8.548;2024-03-17T03:27:40;101627.0;;;17.0;82.7
72124;BME280;63818;37.134;-8.548;2024-03-17T03:32:28;101620.3;;;16.9;82.0
72124;BME280;63818;37.134;-8.548;2024-03-17T03:42:18;101621.8;;;16.9;81.6
72124;BME280;63818;37.134;-8.548;2024-03-17T03:47:07;101621.8;;;16.9;81.0
72124;BME280;63818;37.134;-8.548;2024-03-17T03:51:58;101613.7;;;17.0;81.0
72124;BME280;63818;37.134;-8.548;2024-03-17T03:56:46;101616.3;;;16.9;80.6
72124;BME280;63818;37.134;-8.548;2024-03-17T04:01:34;101604.5;;;16.9;80.6
72124;BME280;63818;37.134;-8.548;2024-03-17T04:06:24;101607.6;;;16.8;80.7
72124;BME280;63818;37.134;-8.548;2024-03-17T04:11:13;101603.0;;;16.7;81.4
72124;BME280;63818;37.134;-8.548;2024-03-17T04:16:04;101603.7;;;16.7;81.5
72124;BME280;63818;37.134;-8.548;2024-03-17T04:20:55;101593.4;;;16.6;81.1
72124;BME280;63818;37.134;-8.548;2024-03-17T04:25:43;101590.4;;;16.6;81.1
72124;BME280;63818;37.134;-8.548;2024-03-17T04:30:34;101591.1;;;16.6;80.8
72124;BME280;63818;37.134;-8.548;2024-03-17T04:35:22;101585.0;;;16.6;80.7
72124;BME280;63818;37.134;-8.548;2024-03-17T04:45:07;101593.3;;;16.5;80.7
72124;BME280;63818;37.134;-8.548;2024-03-17T04:49:56;101583.0;;;16.5;81.1
72124;BME280;63818;37.134;-8.548;2024-03-17T04:54:44;101582.7;;;16.4;81.4
72124;BME280;63818;37.134;-8.548;2024-03-17T04:59:35;101586.8;;;16.4;81.4
72124;BME280;63818;37.134;-8.548;2024-03-17T05:04:26;101588.9;;;16.5;81.6
72124;BME280;63818;37.134;-8.548;2024-03-17T05:09:14;101588.2;;;16.5;81.2
72124;BME280;63818;37.134;-8.548;2024-03-17T05:14:02;101594.0;;;16.4;81.0
72124;BME280;63818;37.134;-8.548;2024-03-17T05:18:50;101578.9;;;16.2;81.3
72124;BME280;63818;37.134;-8.548;2024-03-17T05:23:43;101586.4;;;16.2;81.5
72124;BME280;63818;37.134;-8.548;2024-03-17T05:28:31;101585.8;;;16.0;82.2
72124;BME280;63818;37.134;-8.548;2024-03-17T05:33:19;101584.2;;;16.0;82.1
72124;BME280;63818;37.134;-8.548;2024-03-17T05:38:10;101581.7;;;16.0;81.9
72124;BME280;63818;37.134;-8.548;2024-03-17T05:42:58;101582.1;;;16.1;81.6
72124;BME280;63818;37.134;-8.548;2024-03-17T05:47:46;101587.7;;;16.0;81.1
72124;BME280;63818;37.134;-8.548;2024-03-17T05:52:36;101589.8;;;16.1;81.3
72124;BME280;63818;37.134;-8.548;2024-03-17T05:57:27;101584.5;;;16.2;80.9
72124;BME280;63818;37.134;-8.548;2024-03-17T06:02:15;101581.0;;;16.2;80.2
72124;BME280;63818;37.134;-8.548;2024-03-17T06:07:05;101575.1;;;16.2;80.0
72124;BME280;63818;37.134;-8.548;2024-03-17T06:11:54;101572.8;;;16.2;79.6
72124;BME280;63818;37.134;-8.548;2024-03-17T06:16:42;101575.2;;;16.2;79.6
72124;BME280;63818;37.134;-8.548;2024-03-17T06:21:30;101572.4;;;16.0;79.7
72124;BME280;63818;37.134;-8.548;2024-03-17T06:26:18;101576.7;;;16.1;79.8
72124;BME280;63818;37.134;-8.548;2024-03-17T06:31:08;101569.2;;;16.1;79.8
72124;BME280;63818;37.134;-8.548;2024-03-17T06:35:56;101568.3;;;16.1;79.5
72124;BME280;63818;37.134;-8.548;2024-03-17T06:40:52;101576.4;;;16.2;79.4
72124;BME280;63818;37.134;-8.548;2024-03-17T06:45:40;101576.1;;;16.1;79.1
72124;BME280;63818;37.134;-8.548;2024-03-17T06:55:25;101571.5;;;16.0;79.3
72124;BME280;63818;37.134;-8.548;2024-03-17T07:00:16;101577.0;;;16.0;79.5
72124;BME280;63818;37.134;-8.548;2024-03-17T07:05:10;101589.2;;;16.1;79.1
72124;BME280;63818;37.134;-8.548;2024-03-17T07:10:01;101589.0;;;16.1;78.9
72124;BME280;63818;37.134;-8.548;2024-03-17T07:14:51;101593.8;;;16.1;79.5
72124;BME280;63818;37.134;-8.548;2024-03-17T07:19:42;101605.6;;;16.0;79.5
72124;BME280;63818;37.134;-8.548;2024-03-17T07:24:32;101594.4;;;16.1;79.4
72124;BME280;63818;37.134;-8.548;2024-03-17T07:29:20;101590.4;;;16.1;79.8
72124;BME280;63818;37.134;-8.548;2024-03-17T07:34:11;101599.2;;;16.1;79.6
72124;BME280;63818;37.134;-8.548;2024-03-17T07:38:59;101604.8;;;16.2;79.5
72124;BME280;63818;37.134;-8.548;2024-03-17T07:43:50;101603.5;;;16.2;79.6
72124;BME280;63818;37.134;-8.548;2024-03-17T07:48:39;101605.2;;;16.2;79.9
72124;BME280;63818;37.134;-8.548;2024-03-17T07:53:27;101602.5;;;16.2;79.7
72124;BME280;63818;37.134;-8.548;2024-03-17T07:58:17;101606.0;;;16.2;80.0
72124;BME280;63818;37.134;-8.548;2024-03-17T08:03:06;101619.4;;;16.3;79.6
72124;BME280;63818;37.134;-8.548;2024-03-17T08:07:54;101618.5;;;16.3;79.9
72124;BME280;63818;37.134;-8.548;2024-03-17T08:12:42;101610.9;;;16.4;80.0
72124;BME280;63818;37.134;-8.548;2024-03-17T08:17:39;101610.6;;;16.5;79.7
72124;BME280;63818;37.134;-8.548;2024-03-17T08:22:27;101611.8;;;16.6;79.9
72124;BME280;63818;37.134;-8.548;2024-03-17T08:27:15;101614.8;;;16.6;78.8
72124;BME280;63818;37.134;-8.548;2024-03-17T08:32:04;101603.5;;;16.7;78.3
72124;BME280;63818;37.134;-8.548;2024-03-17T08:36:53;101607.3;;;16.8;77.7
72124;BME280;63818;37.134;-8.548;2024-03-17T08:41:43;101608.8;;;16.9;77.7
72124;BME280;63818;37.134;-8.548;2024-03-17T08:46:33;101620.8;;;17.0;77.3
72124;BME280;63818;37.134;-8.548;2024-03-17T08:51:21;101620.6;;;17.0;76.8
72124;BME280;63818;37.134;-8.548;2024-03-17T08:56:09;101623.6;;;17.1;76.5
72124;BME280;63818;37.134;-8.548;2024-03-17T09:00:57;101631.2;;;17.1;76.6
72124;BME280;63818;37.134;-8.548;2024-03-17T09:05:48;101640.7;;;17.2;76.4
72124;BME280;63818;37.134;-8.548;2024-03-17T09:15:31;101641.9;;;17.3;75.8
72124;BME280;63818;37.134;-8.548;2024-03-17T09:20:19;101653.5;;;17.4;75.1
72124;BME280;63818;37.134;-8.548;2024-03-17T09:25:14;101658.8;;;17.5;74.2
72124;BME280;63818;37.134;-8.548;2024-03-17T09:30:03;101655.2;;;17.5;69.2
72124;BME280;63818;37.134;-8.548;2024-03-17T09:34:51;101633.4;;;17.6;65.5
72124;BME280;63818;37.134;-8.548;2024-03-17T09:39:39;101634.1;;;17.7;63.2
72124;BME280;63818;37.134;-8.548;2024-03-17T09:44:30;101635.2;;;17.8;62.3
72124;BME280;63818;37.134;-8.548;2024-03-17T09:49:25;101632.1;;;18.0;59.2
72124;BME280;63818;37.134;-8.548;2024-03-17T09:54:17;101625.7;;;18.1;59.7
72124;BME280;63818;37.134;-8.548;2024-03-17T09:59:06;101617.5;;;18.3;58.1
72124;BME280;63818;37.134;-8.548;2024-03-17T10:04:01;101622.5;;;18.4;57.0
72124;BME280;63818;37.134;-8.548;2024-03-17T10:08:50;101607.3;;;18.4;57.5
72124;BME280;63818;37.134;-8.548;2024-03-17T10:13:38;101583.2;;;18.4;57.9
72124;BME280;63818;37.134;-8.548;2024-03-17T10:18:26;101586.2;;;18.5;57.4
72124;BME280;63818;37.134;-8.548;2024-03-17T10:23:16;101560.9;;;18.6;57.5
72124;BME280;63818;37.134;-8.548;2024-03-17T10:28:09;101582.2;;;18.5;57.2
72124;BME280;63818;37.134;-8.548;2024-03-17T10:32:59;101576.0;;;18.5;57.4
72124;BME280;63818;37.134;-8.548;2024-03-17T10:37:56;101580.4;;;18.6;58.2
72124;BME280;63818;37.134;-8.548;2024-03-17T10:42:50;101581.1;;;18.6;59.1
72124;BME280;63818;37.134;-8.548;2024-03-17T10:47:40;101576.0;;;18.5;59.0
72124;BME280;63818;37.134;-8.548;2024-03-17T10:52:35;101590.8;;;18.7;59.3
72124;BME280;63818;37.134;-8.548;2024-03-17T10:57:31;101595.5;;;18.7;59.4
72124;BME280;63818;37.134;-8.548;2024-03-17T11:02:24;101612.0;;;18.7;59.4
72124;BME280;63818;37.134;-8.548;2024-03-17T11:07:16;101600.3;;;18.7;60.1
72124;BME280;63818;37.134;-8.548;2024-03-17T11:12:10;101586.8;;;18.9;59.6
72124;BME280;63818;37.134;-8.548;2024-03-17T11:17:19;101598.9;;;18.9;59.7
72124;BME280;63818;37.134;-8.548;2024-03-17T11:22:42;101592.8;;;18.9;60.7
72124;BME280;63818;37.134;-8.548;2024-03-17T11:27:47;101570.8;;;19.0;60.4
72124;BME280;63818;37.134;-8.548;2024-03-17T11:32:37;101562.4;;;19.0;60.2
72124;BME280;63818;37.134;-8.548;2024-03-17T11:37:43;101558.2;;;19.1;60.4
72124;BME280;63818;37.134;-8.548;2024-03-17T11:42:31;101564.5;;;19.1;60.5
72124;BME280;63818;37.134;-8.548;2024-03-17T11:47:36;101553.4;;;19.1;60.8
72124;BME280;63818;37.134;-8.548;2024-03-17T11:52:25;101562.2;;;19.1;61.6
72124;BME280;63818;37.134;-8.548;2024-03-17T11:57:14;101574.7;;;19.2;61.4
72124;BME280;63818;37.134;-8.548;2024-03-17T12:02:19;101584.4;;;19.3;61.6
72124;BME280;63818;37.134;-8.548;2024-03-17T12:07:12;101587.3;;;19.3;61.6
72124;BME280;63818;37.134;-8.548;2024-03-17T12:12:03;101578.5;;;19.4;61.4
72124;BME280;63818;37.134;-8.548;2024-03-17T12:16:53;101587.9;;;19.4;61.7
72124;BME280;63818;37.134;-8.548;2024-03-17T12:21:43;101584.9;;;19.4;62.0
72124;BME280;63818;37.134;-8.548;2024-03-17T12:26:31;101573.8;;;19.5;61.9
72124;BME280;63818;37.134;-8.548;2024-03-17T12:31:26;101584.9;;;19.4;62.3
72124;BME280;63818;37.134;-8.548;2024-03-17T12:36:16;101596.1;;;19.4;62.9
72124;BME280;63818;37.134;-8.548;2024-03-17T12:41:05;101595.2;;;19.4;63.5
72124;BME280;63818;37.134;-8.548;2024-03-17T12:46:04;101595.3;;;19.4;63.7
72124;BME280;63818;37.134;-8.548;2024-03-17T12:50:55;101589.6;;;19.4;64.7
72124;BME280;63818;37.134;-8.548;2024-03-17T12:55:57;101579.5;;;19.4;65.0
72124;BME280;63818;37.134;-8.548;2024-03-17T13:00:50;101575.1;;;19.5;65.0
72124;BME280;63818;37.134;-8.548;2024-03-17T13:05:48;101577.4;;;19.5;65.2
72124;BME280;63818;37.134;-8.548;2024-03-17T13:10:39;101576.2;;;19.6;65.4
72124;BME280;63818;37.134;-8.548;2024-03-17T13:15:33;101577.2;;;19.7;64.5
72124;BME280;63818;37.134;-8.548;2024-03-17T13:20:21;101565.1;;;19.7;64.3
72124;BME280;63818;37.134;-8.548;2024-03-17T13:25:16;101548.4;;;19.7;64.5
72124;BME280;63818;37.134;-8.548;2024-03-17T13:30:05;101548.5;;;19.8;64.9
72124;BME280;63818;37.134;-8.548;2024-03-17T13:34:56;101549.0;;;19.8;64.3
72124;BME280;63818;37.134;-8.548;2024-03-17T13:39:49;101540.5;;;20.0;63.8
72124;BME280;63818;37.134;-8.548;2024-03-17T13:44:40;101535.5;;;20.0;62.8
72124;BME280;63818;37.134;-8.548;2024-03-17T13:49:29;101550.1;;;19.9;63.7
72124;BME280;63818;37.134;-8.548;2024-03-17T13:54:19;101551.5;;;20.0;63.7
72124;BME280;63818;37.134;-8.548;2024-03-17T13:59:07;101550.2;;;20.0;64.3
72124;BME280;63818;37.134;-8.548;2024-03-17T14:03:55;101537.7;;;20.1;64.0
72124;BME280;63818;37.134;-8.548;2024-03-17T14:08:43;101537.8;;;20.1;64.2
72124;BME280;63818;37.134;-8.548;2024-03-17T14:13:32;101546.8;;;20.1;64.0
72124;BME280;63818;37.134;-8.548;2024-03-17T14:18:20;101550.3;;;20.2;63.9
72124;BME280;63818;37.134;-8.548;2024-03-17T14:23:07;101549.2;;;20.2;64.3
72124;BME280;63818;37.134;-8.548;2024-03-17T14:32:48;101521.6;;;20.3;64.2
72124;BME280;63818;37.134;-8.548;2024-03-17T14:37:37;101529.0;;;20.4;64.7
72124;BME280;63818;37.134;-8.548;2024-03-17T14:47:18;101546.2;;;20.5;64.6
72124;BME280;63818;37.134;-8.548;2024-03-17T14:52:09;101545.5;;;20.6;64.3
72124;BME280;63818;37.134;-8.548;2024-03-17T14:56:57;101531.2;;;20.8;63.8
72124;BME280;63818;37.134;-8.548;2024-03-17T15:01:48;101526.8;;;20.9;62.9
72124;BME280;63818;37.134;-8.548;2024-03-17T15:06:36;101524.4;;;21.1;62.5
72124;BME280;63818;37.134;-8.548;2024-03-17T15:11:27;101536.1;;;21.2;61.6
72124;BME280;63818;37.134;-8.548;2024-03-17T15:16:15;101526.8;;;21.5;60.4
72124;BME280;63818;37.134;-8.548;2024-03-17T15:21:03;101521.0;;;21.7;59.0
72124;BME280;63818;37.134;-8.548;2024-03-17T15:25:51;101498.0;;;22.0;58.1
72124;BME280;63818;37.134;-8.548;2024-03-17T15:30:39;101495.3;;;22.2;57.0
72124;BME280;63818;37.134;-8.548;2024-03-17T15:35:35;101492.4;;;22.3;56.8
72124;BME280;63818;37.134;-8.548;2024-03-17T15:40:23;101490.9;;;22.4;57.1
72124;BME280;63818;37.134;-8.548;2024-03-17T15:45:12;101479.3;;;22.8;56.1
72124;BME280;63818;37.134;-8.548;2024-03-17T15:50:05;101476.9;;;23.0;55.5
72124;BME280;63818;37.134;-8.548;2024-03-17T15:55:00;101464.6;;;22.9;55.4
72124;BME280;63818;37.134;-8.548;2024-03-17T15:59:48;101466.7;;;23.0;56.2
72124;BME280;63818;37.134;-8.548;2024-03-17T16:04:36;101467.8;;;23.0;55.8
72124;BME280;63818;37.134;-8.548;2024-03-17T16:09:29;101483.7;;;22.9;57.1
72124;BME280;63818;37.134;-8.548;2024-03-17T16:14:17;101478.3;;;22.9;56.8
72124;BME280;63818;37.134;-8.548;2024-03-17T16:19:05;101475.8;;;22.8;56.3
72124;BME280;63818;37.134;-8.548;2024-03-17T16:23:55;101473.4;;;22.7;55.9
72124;BME280;63818;37.134;-8.548;2024-03-17T16:28:46;101471.2;;;22.6;57.1
72124;BME280;63818;37.134;-8.548;2024-03-17T16:33:36;101482.4;;;22.5;58.5
72124;BME280;63818;37.134;-8.548;2024-03-17T16:38:25;101469.0;;;22.4;59.4
72124;BME280;63818;37.134;-8.548;2024-03-17T16:43:18;101467.3;;;22.3;59.6
72124;BME280;63818;37.134;-8.548;2024-03-17T16:48:08;101474.7;;;22.3;60.2
72124;BME280;63818;37.134;-8.548;2024-03-17T16:52:58;101465.7;;;22.3;60.4
72124;BME280;63818;37.134;-8.548;2024-03-17T16:57:48;101451.9;;;22.2;60.6
72124;BME280;63818;37.134;-8.548;2024-03-17T17:02:39;101456.9;;;22.2;60.9
72124;BME280;63818;37.134;-8.548;2024-03-17T17:07:27;101463.8;;;22.1;61.0
72124;BME280;63818;37.134;-8.548;2024-03-17T17:12:15;101459.7;;;22.0;61.3
72124;BME280;63818;37.134;-8.548;2024-03-17T17:17:03;101452.7;;;21.8;61.4
72124;BME280;63818;37.134;-8.548;2024-03-17T17:21:53;101448.2;;;21.7;62.1
72124;BME280;63818;37.134;-8.548;2024-03-17T17:26:41;101448.5;;;21.6;62.8
72124;BME280;63818;37.134;-8.548;2024-03-17T17:31:32;101452.7;;;21.6;63.3
72124;BME280;63818;37.134;-8.548;2024-03-17T17:36:25;101454.6;;;21.5;63.4
72124;BME280;63818;37.134;-8.548;2024-03-17T17:41:14;101452.9;;;21.4;64.1
72124;BME280;63818;37.134;-8.548;2024-03-17T17:46:03;101451.2;;;21.4;64.2
72124;BME280;63818;37.134;-8.548;2024-03-17T17:50:56;101465.1;;;21.3;64.9
72124;BME280;63818;37.134;-8.548;2024-03-17T17:55:44;101456.4;;;21.2;65.6
72124;BME280;63818;37.134;-8.548;2024-03-17T18:00:34;101454.4;;;21.2;66.4
72124;BME280;63818;37.134;-8.548;2024-03-17T18:05:22;101456.0;;;21.2;66.7
72124;BME280;63818;37.134;-8.548;2024-03-17T18:10:12;101455.8;;;21.1;67.2
72124;BME280;63818;37.134;-8.548;2024-03-17T18:15:01;101454.1;;;21.1;67.1
72124;BME280;63818;37.134;-8.548;2024-03-17T18:19:53;101458.2;;;21.0;67.6
72124;BME280;63818;37.134;-8.548;2024-03-17T18:24:41;101458.1;;;20.9;67.8
72124;BME280;63818;37.134;-8.548;2024-03-17T18:29:29;101466.5;;;20.8;68.0
72124;BME280;63818;37.134;-8.548;2024-03-17T18:34:17;101463.2;;;20.7;68.5
72124;BME280;63818;37.134;-8.548;2024-03-17T18:39:05;101461.5;;;20.7;69.1
72124;BME280;63818;37.134;-8.548;2024-03-17T18:43:53;101457.1;;;20.6;69.2
72124;BME280;63818;37.134;-8.548;2024-03-17T18:48:45;101455.8;;;20.5;69.3
72124;BME280;63818;37.134;-8.548;2024-03-17T18:53:35;101463.4;;;20.5;69.5
72124;BME280;63818;37.134;-8.548;2024-03-17T18:58:25;101462.9;;;20.4;69.8
72124;BME280;63818;37.134;-8.548;2024-03-17T19:03:13;101467.9;;;20.4;70.0
72124;BME280;63818;37.134;-8.548;2024-03-17T19:08:02;101472.9;;;20.4;70.1
72124;BME280;63818;37.134;-8.548;2024-03-17T19:12:51;101463.7;;;20.3;70.1
72124;BME280;63818;37.134;-8.548;2024-03-17T19:17:39;101481.0;;;20.2;70.7
72124;BME280;63818;37.134;-8.548;2024-03-17T19:22:29;101488.5;;;20.2;71.1
72124;BME280;63818;37.134;-8.548;2024-03-17T19:27:17;101489.9;;;20.1;71.7
72124;BME280;63818;37.134;-8.548;2024-03-17T19:32:08;101495.7;;;20.1;71.6
72124;BME280;63818;37.134;-8.548;2024-03-17T19:36:58;101499.2;;;20.1;71.8
72124;BME280;63818;37.134;-8.548;2024-03-17T19:41:46;101498.7;;;20.1;71.6
72124;BME280;63818;37.134;-8.548;2024-03-17T19:46:47;101493.4;;;20.0;71.6
72124;BME280;63818;37.134;-8.548;2024-03-17T19:51:36;101497.5;;;19.9;72.1
72124;BME280;63818;37.134;-8.548;2024-03-17T19:56:24;101501.7;;;19.9;72.0
72124;BME280;63818;37.134;-8.548;2024-03-17T20:01:15;101513.3;;;19.8;72.4
72124;BME280;63818;37.134;-8.548;2024-03-17T20:06:05;101513.9;;;19.8;72.4
72124;BME280;63818;37.134;-8.548;2024-03-17T20:10:56;101523.4;;;19.8;72.6
72124;BME280;63818;37.134;-8.548;2024-03-17T20:15:45;101530.4;;;19.8;72.5
72124;BME280;63818;37.134;-8.548;2024-03-17T20:20:33;101540.4;;;19.8;72.7
72124;BME280;63818;37.134;-8.548;2024-03-17T20:25:21;101541.1;;;19.8;73.2
72124;BME280;63818;37.134;-8.548;2024-03-17T20:30:12;101534.9;;;19.8;73.4
72124;BME280;63818;37.134;-8.548;2024-03-17T20:35:00;101542.3;;;19.8;73.1
72124;BME280;63818;37.134;-8.548;2024-03-17T20:39:48;101549.2;;;19.7;73.2
72124;BME280;63818;37.134;-8.548;2024-03-17T20:44:36;101550.7;;;19.7;73.6
72124;BME280;63818;37.134;-8.548;2024-03-17T20:49:24;101559.8;;;19.6;73.9
72124;BME280;63818;37.134;-8.548;2024-03-17T20:54:16;101567.1;;;19.6;74.1
72124;BME280;63818;37.134;-8.548;2024-03-17T20:59:05;101566.8;;;19.6;74.4
72124;BME280;63818;37.134;-8.548;2024-03-17T21:03:53;101572.5;;;19.5;74.1
72124;BME280;63818;37.134;-8.548;2024-03-17T21:08:47;101576.7;;;19.5;74.6
72124;BME280;63818;37.134;-8.548;2024-03-17T21:13:35;101592.7;;;19.5;74.7
72124;BME280;63818;37.134;-8.548;2024-03-17T21:18:23;101591.8;;;19.5;74.5
72124;BME280;63818;37.134;-8.548;2024-03-17T21:23:11;101592.8;;;19.5;74.4
72124;BME280;63818;37.134;-8.548;2024-03-17T21:33:05;101583.2;;;19.4;74.7
72124;BME280;63818;37.134;-8.548;2024-03-17T21:37:53;101575.3;;;19.3;75.2
72124;BME280;63818;37.134;-8.548;2024-03-17T21:42:42;101576.2;;;19.2;76.4
72124;BME280;63818;37.134;-8.548;2024-03-17T21:47:30;101572.7;;;19.2;77.3
72124;BME280;63818;37.134;-8.548;2024-03-17T21:52:18;101581.8;;;19.1;78.1
72124;BME280;63818;37.134;-8.548;2024-03-17T21:57:08;101589.9;;;19.1;78.3
72124;BME280;63818;37.134;-8.548;2024-03-17T22:01:56;101576.8;;;19.2;78.6
72124;BME280;63818;37.134;-8.548;2024-03-17T22:06:44;101583.2;;;19.1;79.1
72124;BME280;63818;37.134;-8.548;2024-03-17T22:11:32;101587.1;;;19.1;78.8
72124;BME280;63818;37.134;-8.548;2024-03-17T22:16:22;101581.2;;;19.1;78.5
72124;BME280;63818;37.134;-8.548;2024-03-17T22:21:10;101577.1;;;19.0;78.5
72124;BME280;63818;37.134;-8.548;2024-03-17T22:26:00;101560.3;;;19.0;78.1
72124;BME280;63818;37.134;-8.548;2024-03-17T22:30:57;101554.2;;;18.9;77.9
72124;BME280;63818;37.134;-8.548;2024-03-17T22:35:56;101547.3;;;18.9;77.9
72124;BME280;63818;37.134;-8.548;2024-03-17T22:40:53;101548.0;;;18.9;77.9
72124;BME280;63818;37.134;-8.548;2024-03-17T22:45:41;101554.7;;;18.9;77.6
72124;BME280;63818;37.134;-8.548;2024-03-17T22:55:22;101549.0;;;18.9;77.1
72124;BME280;63818;37.134;-8.548;2024-03-17T23:00:13;101543.8;;;18.8;76.8
72124;BME280;63818;37.134;-8.548;2024-03-17T23:05:01;101542.5;;;18.8;76.8
72124;BME280;63818;37.134;-8.548;2024-03-17T23:09:50;101530.9;;;18.8;76.7
72124;BME280;63818;37.134;-8.548;2024-03-17T23:14:37;101532.8;;;18.8;77.0
72124;BME280;63818;37.134;-8.548;2024-03-17T23:19:25;101520.7;;;18.8;76.8
72124;BME280;63818;37.134;-8.548;2024-03-17T23:24:13;101523.3;;;18.7;76.8
72124;BME280;63818;37.134;-8.548;2024-03-17T23:29:01;101531.8;;;18.7;77.5
72124;BME280;63818;37.134;-8.548;2024-03-17T23:33:50;101520.9;;;18.7;77.4
72124;BME280;63818;37.134;-8.548;2024-03-17T23:38:38;101524.6;;;18.6;77.8
72124;BME280;63818;37.134;-8.548;2024-03-17T23:43:26;101521.7;;;18.6;78.1
72124;BME280;63818;37.134;-8.548;2024-03-17T23:48:14;101512.8;;;18.6;78.0
72124;BME280;63818;37.134;-8.548;2024-03-17T23:53:02;101508.9;;;18.6;78.1
72124;BME280;63818;37.134;-8.548;2024-03-17T23:57:50;101519.7;;;18.5;78.1
